createdAt,value
2022-09-07T00:01:01.355Z,20.37
2022-09-07T00:03:28.259Z,20.37
2022-09-07T00:05:55.003Z,20.36
2022-09-07T00:08:24.375Z,20.36
2022-09-07T00:10:53.382Z,20.35
2022-09-07T00:13:20.345Z,20.32
2022-09-07T00:15:47.005Z,20.27
2022-09-07T00:18:13.585Z,20.25
2022-09-07T00:20:40.120Z,20.23
2022-09-07T00:23:06.900Z,20.21
2022-09-07T00:25:39.096Z,20.16
2022-09-07T00:28:08.065Z,20.11
2022-09-07T00:30:40.445Z,20.07
2022-09-07T00:33:07.001Z,20.05
2022-09-07T00:35:33.560Z,20.07
2022-09-07T00:38:00.276Z,20.08
2022-09-07T00:40:26.891Z,20.07
2022-09-07T00:42:53.464Z,20.08
2022-09-07T00:45:21.257Z,20.08
2022-09-07T00:47:54.528Z,20.06
2022-09-07T00:50:23.971Z,20.08
2022-09-07T00:52:59.954Z,20.07
2022-09-07T00:55:27.684Z,20.09
2022-09-07T00:57:56.377Z,20.07
2022-09-07T01:00:23.516Z,20.07
2022-09-07T01:02:54.178Z,20.05
2022-09-07T01:05:33.246Z,20.04
2022-09-07T01:07:59.831Z,20.02
2022-09-07T01:10:30.679Z,20.03
2022-09-07T01:12:58.265Z,20.01
2022-09-07T01:15:48.577Z,19.99
2022-09-07T01:18:33.280Z,19.95
2022-09-07T01:21:11.900Z,19.94
2022-09-07T01:24:09.142Z,19.92
2022-09-07T01:26:48.130Z,19.89
2022-09-07T01:29:39.884Z,19.88
2022-09-07T01:32:21.441Z,19.88
2022-09-07T01:34:53.289Z,19.86
2022-09-07T01:37:38.282Z,19.84
2022-09-07T01:40:15.523Z,19.78
2022-09-07T01:42:52.860Z,19.74
2022-09-07T01:45:25.593Z,19.70
2022-09-07T01:47:56.504Z,19.68
2022-09-07T01:50:32.084Z,19.67
2022-09-07T01:53:07.555Z,19.67
2022-09-07T01:55:45.611Z,19.68
2022-09-07T01:58:24.275Z,19.68
2022-09-07T02:01:07.768Z,19.66
2022-09-07T02:03:49.603Z,19.64
2022-09-07T02:06:51.937Z,19.58
2022-09-07T02:09:23.459Z,19.54
2022-09-07T02:11:50.405Z,19.60
2022-09-07T02:14:16.944Z,19.61
2022-09-07T02:17:00.312Z,19.59
2022-09-07T02:19:33.432Z,19.59
2022-09-07T02:22:05.455Z,19.57
2022-09-07T02:24:37.751Z,19.50
2022-09-07T02:27:07.808Z,19.48
2022-09-07T02:29:34.511Z,19.51
2022-09-07T02:32:01.541Z,19.49
2022-09-07T02:34:28.144Z,19.48
2022-09-07T02:36:55.729Z,19.46
2022-09-07T02:39:22.343Z,19.46
2022-09-07T02:41:48.882Z,19.48
2022-09-07T02:44:25.218Z,19.46
2022-09-07T02:47:20.418Z,19.46
2022-09-07T02:50:27.576Z,19.46
2022-09-07T02:52:56.827Z,19.48
2022-09-07T02:55:47.713Z,19.48
2022-09-07T02:58:39.890Z,19.47
2022-09-07T03:01:06.579Z,19.48
2022-09-07T03:03:54.807Z,19.42
2022-09-07T03:06:39.595Z,19.40
2022-09-07T03:09:13.150Z,19.40
2022-09-07T03:11:39.726Z,19.40
2022-09-07T03:14:22.611Z,19.37
2022-09-07T03:16:51.314Z,19.40
2022-09-07T03:19:18.463Z,19.42
2022-09-07T03:21:45.604Z,19.46
2022-09-07T03:24:12.185Z,19.49
2022-09-07T03:26:43.456Z,19.53
2022-09-07T03:29:10.077Z,19.55
2022-09-07T03:31:36.868Z,19.58
2022-09-07T03:34:04.030Z,19.58
2022-09-07T03:36:31.655Z,19.59
2022-09-07T03:39:01.420Z,19.59
2022-09-07T03:41:28.489Z,19.61
2022-09-07T03:43:55.211Z,19.61
2022-09-07T03:46:21.908Z,19.59
2022-09-07T03:48:50.171Z,19.57
2022-09-07T03:51:18.166Z,19.55
2022-09-07T03:53:46.362Z,19.52
2022-09-07T03:56:18.446Z,19.52
2022-09-07T03:58:45.785Z,19.45
2022-09-07T04:01:15.999Z,19.48
2022-09-07T04:03:43.824Z,19.47
2022-09-07T04:06:11.073Z,19.44
2022-09-07T04:08:38.543Z,19.39
2022-09-07T04:11:06.966Z,19.36
2022-09-07T04:13:35.936Z,19.33
2022-09-07T04:16:19.833Z,19.29
2022-09-07T04:18:47.001Z,19.26
2022-09-07T04:21:13.769Z,19.23
2022-09-07T04:23:41.936Z,19.23
2022-09-07T04:26:36.043Z,19.20
2022-09-07T04:29:04.223Z,19.21
2022-09-07T04:31:34.275Z,19.18
2022-09-07T04:34:01.301Z,19.18
2022-09-07T04:36:28.141Z,19.16
2022-09-07T04:38:57.474Z,19.12
2022-09-07T04:41:24.251Z,19.10
2022-09-07T04:43:54.531Z,19.08
2022-09-07T04:46:30.099Z,19.08
2022-09-07T04:48:59.221Z,19.07
2022-09-07T04:51:28.993Z,19.15
2022-09-07T04:53:57.486Z,19.58
2022-09-07T04:56:24.236Z,20.01
2022-09-07T04:58:51.498Z,20.40
2022-09-07T05:01:20.973Z,20.64
2022-09-07T05:03:48.098Z,20.89
2022-09-07T05:06:16.653Z,20.90
2022-09-07T05:08:45.839Z,20.81
2022-09-07T05:11:14.030Z,20.66
2022-09-07T05:13:40.938Z,20.65
2022-09-07T05:16:18.859Z,20.74
2022-09-07T05:18:50.048Z,20.97
2022-09-07T05:21:19.310Z,21.09
2022-09-07T05:23:49.209Z,21.26
2022-09-07T05:26:15.779Z,21.38
2022-09-07T05:28:42.455Z,21.49
2022-09-07T05:31:18.519Z,21.48
2022-09-07T05:36:33.568Z,21.31
2022-09-07T05:39:00.187Z,21.12
2022-09-07T05:41:27.403Z,20.80
2022-09-07T05:46:41.599Z,20.47
2022-09-07T05:49:08.397Z,20.34
2022-09-07T05:51:37.034Z,20.08
2022-09-07T05:54:04.111Z,19.85
2022-09-07T05:56:33.339Z,19.86
2022-09-07T05:58:59.879Z,19.77
2022-09-07T06:01:26.476Z,19.88
2022-09-07T06:03:53.088Z,20.12
2022-09-07T06:06:19.708Z,20.17
2022-09-07T06:08:49.259Z,19.97
2022-09-07T06:11:18.848Z,19.68
2022-09-07T06:13:45.505Z,19.52
2022-09-07T06:16:14.077Z,19.55
2022-09-07T06:18:43.417Z,19.57
2022-09-07T06:21:18.624Z,19.56
2022-09-07T06:23:46.235Z,19.48
2022-09-07T06:26:14.042Z,19.42
2022-09-07T06:28:49.165Z,19.42
2022-09-07T06:31:19.470Z,19.45
2022-09-07T06:33:47.848Z,19.38
2022-09-07T06:36:17.296Z,19.58
2022-09-07T06:38:44.551Z,19.72
2022-09-07T06:44:02.700Z,19.60
2022-09-07T06:49:15.981Z,19.27
2022-09-07T06:51:42.578Z,19.27
2022-09-07T06:56:56.434Z,19.31
2022-09-07T06:59:22.971Z,19.42
2022-09-07T07:01:49.626Z,19.41
2022-09-07T07:04:16.296Z,19.40
2022-09-07T07:06:42.857Z,19.28
2022-09-07T07:09:13.753Z,19.28
2022-09-07T07:11:40.398Z,19.35
2022-09-07T07:14:07.065Z,19.35
2022-09-07T07:16:33.696Z,19.33
2022-09-07T07:19:00.319Z,19.28
2022-09-07T07:21:28.933Z,19.25
2022-09-07T07:24:05.015Z,19.31
2022-09-07T07:26:34.725Z,19.31
2022-09-07T07:29:02.868Z,19.32
2022-09-07T07:31:32.648Z,19.38
2022-09-07T07:33:59.423Z,19.58
2022-09-07T07:36:27.301Z,19.62
2022-09-07T07:44:18.413Z,19.60
2022-09-07T07:46:50.660Z,19.69
2022-09-07T07:49:17.632Z,19.73
2022-09-07T07:54:34.026Z,19.82
2022-09-07T07:57:00.565Z,19.87
2022-09-07T07:59:27.085Z,20.07
2022-09-07T08:01:53.890Z,20.43
2022-09-07T08:04:20.544Z,20.77
2022-09-07T08:06:47.085Z,20.61
2022-09-07T08:09:13.624Z,20.54
2022-09-07T08:11:40.612Z,20.50
2022-09-07T08:14:08.627Z,20.48
2022-09-07T08:16:36.411Z,20.44
2022-09-07T08:19:03.507Z,20.47
2022-09-07T08:21:30.073Z,20.44
2022-09-07T08:23:56.944Z,20.70
2022-09-07T08:26:23.500Z,20.89
2022-09-07T08:28:50.047Z,21.01
2022-09-07T08:31:17.712Z,21.02
2022-09-07T08:33:45.250Z,21.01
2022-09-07T08:36:13.996Z,20.90
2022-09-07T08:38:41.079Z,20.86
2022-09-07T08:41:33.542Z,20.79
2022-09-07T08:44:03.836Z,20.82
2022-09-07T08:46:38.690Z,20.87
2022-09-07T08:49:10.705Z,21.03
2022-09-07T08:51:41.181Z,21.20
2022-09-07T08:54:12.523Z,21.40
2022-09-07T08:57:20.511Z,21.49
2022-09-07T08:59:46.736Z,21.47
2022-09-07T09:05:20.552Z,21.51
2022-09-07T09:06:11.241Z,21.61
2022-09-07T09:08:05.916Z,21.63
2022-09-07T09:11:00.427Z,21.70
2022-09-07T09:13:53.100Z,21.76
2022-09-07T09:16:30.677Z,21.93
2022-09-07T09:19:19.313Z,22.17
2022-09-07T09:21:46.061Z,22.46
2022-09-07T09:24:17.223Z,22.46
2022-09-07T09:29:22.770Z,22.24
2022-09-07T09:31:49.841Z,22.28
2022-09-07T09:34:23.827Z,22.25
2022-09-07T09:36:55.825Z,22.18
2022-09-07T09:39:36.988Z,22.22
2022-09-07T09:42:23.792Z,22.16
2022-09-07T09:44:50.875Z,22.19
2022-09-07T09:47:32.738Z,22.26
2022-09-07T09:50:04.999Z,22.43
2022-09-07T09:52:45.020Z,22.60
2022-09-07T09:55:36.142Z,22.74
2022-09-07T10:01:36.068Z,23.38
2022-09-07T10:04:38.450Z,23.46
2022-09-07T10:07:25.917Z,23.69
2022-09-07T10:09:54.468Z,23.63
2022-09-07T10:12:32.238Z,23.71
2022-09-07T10:15:01.327Z,23.80
2022-09-07T10:17:43.569Z,24.04
2022-09-07T10:20:15.458Z,24.20
2022-09-07T10:22:53.972Z,24.36
2022-09-07T10:25:41.972Z,24.55
2022-09-07T10:28:11.611Z,24.71
2022-09-07T10:30:45.810Z,24.82
2022-09-07T10:33:28.740Z,24.79
2022-09-07T10:35:58.528Z,24.82
2022-09-07T10:38:29.508Z,24.85
2022-09-07T10:41:09.701Z,24.79
2022-09-07T10:43:47.294Z,24.63
2022-09-07T10:49:21.559Z,24.47
2022-09-07T10:52:21.344Z,24.52
2022-09-07T10:55:10.177Z,24.56
2022-09-07T10:57:55.151Z,24.61
2022-09-07T11:00:22.817Z,24.65
2022-09-07T11:03:28.942Z,24.70
2022-09-07T11:06:01.429Z,24.74
2022-09-07T11:12:08.073Z,24.62
2022-09-07T11:14:42.293Z,24.83
2022-09-07T11:17:17.105Z,25.09
2022-09-07T11:19:54.778Z,25.26
2022-09-07T11:22:28.936Z,25.43
2022-09-07T11:25:32.804Z,25.43
2022-09-07T11:28:13.022Z,25.48
2022-09-07T11:30:47.705Z,25.49
2022-09-07T11:33:24.328Z,25.45
2022-09-07T11:35:58.655Z,25.32
2022-09-07T11:38:33.797Z,25.25
2022-09-07T11:41:12.123Z,25.21
2022-09-07T11:43:45.501Z,25.20
2022-09-07T11:46:22.048Z,25.14
2022-09-07T11:48:55.765Z,25.11
2022-09-07T11:51:47.299Z,25.03
2022-09-07T11:54:29.234Z,24.87
2022-09-07T11:57:10.938Z,24.74
2022-09-07T12:00:19.444Z,24.79
2022-09-07T12:03:14.057Z,24.83
2022-09-07T12:05:49.672Z,24.84
2022-09-07T12:09:01.114Z,24.90
2022-09-07T12:11:49.243Z,25.12
2022-09-07T12:14:21.916Z,25.46
2022-09-07T12:16:51.421Z,25.69
2022-09-07T12:19:28.090Z,25.80
2022-09-07T12:21:57.933Z,25.90
2022-09-07T12:24:33.757Z,25.73
2022-09-07T12:27:01.411Z,25.49
2022-09-07T12:29:29.805Z,25.46
2022-09-07T12:32:07.394Z,25.47
2022-09-07T12:34:52.263Z,25.33
2022-09-07T12:37:40.469Z,25.15
2022-09-07T12:40:34.756Z,24.95
2022-09-07T12:43:13.644Z,24.84
2022-09-07T12:45:50.785Z,24.77
2022-09-07T12:48:17.321Z,24.70
2022-09-07T12:50:59.019Z,24.59
2022-09-07T12:53:44.101Z,24.58
2022-09-07T12:56:20.164Z,24.60
2022-09-07T12:58:52.540Z,24.71
2022-09-07T13:01:41.136Z,24.70
2022-09-07T13:04:37.551Z,24.67
2022-09-07T13:07:30.778Z,24.77
2022-09-07T13:09:59.830Z,24.93
2022-09-07T13:12:54.716Z,25.00
2022-09-07T13:15:46.640Z,24.94
2022-09-07T13:18:28.593Z,24.94
2022-09-07T13:21:07.224Z,24.90
2022-09-07T13:23:41.000Z,24.93
2022-09-07T13:26:11.021Z,24.94
2022-09-07T13:28:40.669Z,24.99
2022-09-07T13:31:25.001Z,25.07
2022-09-07T13:33:53.097Z,25.08
2022-09-07T13:36:45.586Z,25.07
2022-09-07T13:39:15.805Z,25.04
2022-09-07T13:41:52.323Z,25.10
2022-09-07T13:44:26.378Z,25.13
2022-09-07T13:46:58.258Z,25.06
2022-09-07T13:49:43.389Z,25.10
2022-09-07T13:52:23.183Z,25.21
2022-09-07T13:55:20.738Z,25.23
2022-09-07T13:58:01.832Z,25.17
2022-09-07T14:00:28.817Z,25.13
2022-09-07T14:03:05.401Z,25.08
2022-09-07T14:05:32.091Z,25.14
2022-09-07T14:07:58.700Z,25.15
2022-09-07T14:10:26.606Z,25.27
2022-09-07T14:13:05.242Z,25.44
2022-09-07T14:15:42.515Z,25.58
2022-09-07T14:18:31.352Z,25.54
2022-09-07T14:20:58.779Z,25.58
2022-09-07T14:23:29.979Z,25.44
2022-09-07T14:26:17.723Z,25.25
2022-09-07T14:28:47.659Z,25.22
2022-09-07T14:31:17.315Z,25.30
2022-09-07T14:34:00.856Z,25.29
2022-09-07T14:36:44.820Z,25.24
2022-09-07T14:39:15.581Z,25.22
2022-09-07T14:41:43.281Z,25.21
2022-09-07T14:44:34.080Z,25.14
2022-09-07T14:47:19.589Z,25.17
2022-09-07T14:49:52.564Z,25.24
2022-09-07T14:52:23.586Z,25.45
2022-09-07T14:54:53.817Z,25.83
2022-09-07T14:57:30.667Z,25.98
2022-09-07T14:59:58.925Z,26.20
2022-09-07T15:02:35.641Z,27.04
2022-09-07T15:05:18.624Z,28.49
2022-09-07T15:07:52.821Z,29.75
2022-09-07T15:10:23.232Z,30.29
2022-09-07T15:12:55.148Z,30.50
2022-09-07T15:15:26.209Z,31.06
2022-09-07T15:17:59.036Z,31.15
2022-09-07T15:20:35.532Z,30.73
2022-09-07T15:23:16.256Z,30.23
2022-09-07T15:25:50.328Z,29.71
2022-09-07T15:34:10.665Z,28.57
2022-09-07T15:36:40.552Z,28.26
2022-09-07T15:39:14.667Z,28.21
2022-09-07T15:41:41.169Z,28.68
2022-09-07T15:44:09.099Z,28.67
2022-09-07T15:46:37.148Z,28.66
2022-09-07T15:49:04.694Z,28.48
2022-09-07T15:54:20.616Z,27.67
2022-09-07T15:59:34.926Z,27.01
2022-09-07T16:02:01.993Z,26.78
2022-09-07T16:04:29.415Z,26.53
2022-09-07T16:06:56.054Z,26.28
2022-09-07T16:09:22.713Z,26.09
2022-09-07T16:11:50.831Z,25.91
2022-09-07T16:14:17.703Z,25.74
2022-09-07T16:19:34.740Z,25.61
2022-09-07T16:22:01.900Z,25.62
2022-09-07T16:24:28.676Z,25.60
2022-09-07T16:26:55.270Z,25.54
2022-09-07T16:29:21.812Z,25.47
2022-09-07T16:34:34.943Z,25.57
2022-09-07T16:37:01.822Z,25.57
2022-09-07T16:39:32.031Z,25.52
2022-09-07T16:42:00.091Z,25.45
2022-09-07T16:44:26.774Z,25.37
2022-09-07T16:46:53.303Z,25.29
2022-09-07T16:49:19.891Z,25.16
2022-09-07T16:51:46.408Z,24.94
2022-09-07T16:54:13.992Z,24.80
2022-09-07T16:56:40.728Z,24.71
2022-09-07T16:59:11.432Z,24.64
2022-09-07T17:01:38.488Z,24.54
2022-09-07T17:04:10.302Z,24.46
2022-09-07T17:06:37.986Z,24.37
2022-09-07T17:09:04.723Z,24.18
2022-09-07T17:11:34.368Z,24.11
2022-09-07T17:14:01.453Z,23.96
2022-09-07T17:16:30.922Z,23.81
2022-09-07T17:21:46.567Z,23.56
2022-09-07T17:24:13.292Z,23.47
2022-09-07T17:26:42.235Z,23.33
2022-09-07T17:29:09.624Z,23.25
2022-09-07T17:34:24.356Z,23.18
2022-09-07T17:36:51.594Z,23.15
2022-09-07T17:39:19.312Z,23.11
2022-09-07T17:41:52.627Z,23.08
2022-09-07T17:44:19.592Z,23.06
2022-09-07T17:46:46.170Z,23.02
2022-09-07T17:49:14.531Z,22.98
2022-09-07T17:51:41.523Z,22.91
2022-09-07T17:54:13.256Z,22.83
2022-09-07T17:56:41.320Z,22.78
2022-09-07T18:01:55.927Z,22.65
2022-09-07T18:04:23.503Z,22.57
2022-09-07T18:06:50.515Z,22.50
2022-09-07T18:09:17.591Z,22.41
2022-09-07T18:11:45.863Z,22.31
2022-09-07T18:14:14.925Z,22.25
2022-09-07T18:16:43.694Z,22.21
2022-09-07T18:19:11.410Z,22.18
2022-09-07T18:21:40.807Z,22.09
2022-09-07T18:24:17.405Z,22.01
2022-09-07T18:26:44.717Z,21.91
2022-09-07T18:29:28.142Z,21.81
2022-09-07T18:31:55.948Z,21.71
2022-09-07T18:34:23.195Z,21.61
2022-09-07T18:36:50.215Z,21.48
2022-09-07T18:39:16.880Z,21.37
2022-09-07T18:41:43.406Z,21.27
2022-09-07T18:46:56.599Z,21.13
2022-09-07T18:49:23.531Z,21.06
2022-09-07T18:54:38.673Z,20.95
2022-09-07T18:57:06.723Z,20.92
2022-09-07T18:59:33.447Z,20.86
2022-09-07T19:02:03.910Z,20.78
2022-09-07T19:07:20.607Z,20.55
2022-09-07T19:09:48.369Z,20.48
2022-09-07T19:12:15.351Z,20.38
2022-09-07T19:14:42.348Z,20.33
2022-09-07T19:17:11.058Z,20.28
2022-09-07T19:19:38.881Z,20.23
2022-09-07T19:22:06.080Z,20.17
2022-09-07T19:24:33.288Z,20.10
2022-09-07T19:27:01.133Z,20.04
2022-09-07T19:29:28.416Z,19.99
2022-09-07T19:32:04.445Z,19.96
2022-09-07T19:34:39.034Z,19.90
2022-09-07T19:37:07.189Z,19.88
2022-09-07T19:39:34.156Z,19.85
2022-09-07T19:42:02.158Z,19.85
2022-09-07T19:44:28.699Z,19.82
2022-09-07T19:46:55.612Z,19.81
2022-09-07T19:49:22.586Z,19.81
2022-09-07T19:51:51.305Z,19.80
2022-09-07T19:54:17.866Z,19.74
2022-09-07T19:56:44.789Z,19.69
2022-09-07T19:59:12.455Z,19.64
2022-09-07T20:01:40.746Z,19.63
2022-09-07T20:04:13.786Z,19.60
2022-09-07T20:06:42.832Z,19.58
2022-09-07T20:09:09.469Z,19.59
2022-09-07T20:11:36.673Z,19.59
2022-09-07T20:14:03.759Z,19.58
2022-09-07T20:16:31.221Z,19.56
2022-09-07T20:18:59.584Z,19.51
2022-09-07T20:21:26.969Z,19.46
2022-09-07T20:23:53.651Z,19.44
2022-09-07T20:26:21.718Z,19.41
2022-09-07T20:29:10.661Z,19.37
2022-09-07T20:31:40.814Z,19.33
2022-09-07T20:34:08.869Z,19.32
2022-09-07T20:36:35.631Z,19.31
2022-09-07T20:39:02.190Z,19.28
2022-09-07T20:41:31.414Z,19.30
2022-09-07T20:44:00.053Z,19.28
2022-09-07T20:46:28.412Z,19.27
2022-09-07T20:48:55.194Z,19.23
2022-09-07T20:51:21.930Z,19.25
2022-09-07T20:53:49.776Z,19.24
2022-09-07T20:56:19.354Z,19.26
2022-09-07T20:58:47.557Z,19.27
2022-09-07T21:01:17.819Z,19.30
2022-09-07T21:03:49.638Z,19.31
2022-09-07T21:06:17.556Z,19.31
2022-09-07T21:08:45.393Z,19.34
2022-09-07T21:11:18.258Z,19.36
2022-09-07T21:13:44.947Z,19.37
2022-09-07T21:16:14.002Z,19.38
2022-09-07T21:18:41.821Z,19.41
2022-09-07T21:21:24.450Z,19.41
2022-09-07T21:23:59.505Z,19.40
2022-09-07T21:26:27.970Z,19.39
2022-09-07T21:28:59.227Z,19.35
2022-09-07T21:31:26.555Z,19.35
2022-09-07T21:33:55.543Z,19.36
2022-09-07T21:36:22.404Z,19.32
2022-09-07T21:38:50.025Z,19.30
2022-09-07T21:41:19.215Z,19.28
2022-09-07T21:43:45.781Z,19.24
2022-09-07T21:46:17.212Z,19.23
2022-09-07T21:48:45.509Z,19.20
2022-09-07T21:51:13.637Z,19.19
2022-09-07T21:53:40.776Z,19.17
2022-09-07T21:56:10.316Z,19.12
2022-09-07T21:58:36.833Z,19.10
2022-09-07T22:01:12.254Z,19.07
2022-09-07T22:03:40.503Z,19.04
2022-09-07T22:06:08.472Z,19.09
2022-09-07T22:08:36.500Z,19.08
2022-09-07T22:11:14.594Z,19.08
2022-09-07T22:13:41.582Z,19.07
2022-09-07T22:16:08.754Z,19.10
2022-09-07T22:18:37.924Z,19.09
2022-09-07T22:21:04.509Z,19.11
2022-09-07T22:23:34.656Z,19.10
2022-09-07T22:26:01.558Z,19.09
2022-09-07T22:28:31.622Z,19.07
2022-09-07T22:31:10.379Z,19.04
2022-09-07T22:33:37.380Z,19.04
2022-09-07T22:36:15.441Z,19.00
2022-09-07T22:38:43.811Z,18.96
2022-09-07T22:41:15.418Z,18.92
2022-09-07T22:49:16.172Z,18.89
2022-09-07T22:54:27.703Z,18.91
2022-09-07T22:56:54.303Z,18.90
2022-09-07T22:59:20.846Z,18.88
2022-09-07T23:01:47.413Z,18.88
2022-09-07T23:04:14.089Z,18.85
2022-09-07T23:06:42.624Z,18.84
2022-09-07T23:09:11.970Z,18.80
2022-09-07T23:11:39.181Z,18.81
2022-09-07T23:14:11.108Z,18.75
2022-09-07T23:16:37.757Z,18.73
2022-09-07T23:19:05.015Z,18.70
2022-09-07T23:21:31.660Z,18.67
2022-09-07T23:24:00.975Z,18.68
2022-09-07T23:26:30.448Z,18.66
2022-09-07T23:29:00.017Z,18.65
2022-09-07T23:31:28.197Z,18.64
2022-09-07T23:33:57.409Z,18.64
2022-09-07T23:36:24.886Z,18.66
2022-09-07T23:38:54.435Z,18.68
2022-09-07T23:41:21.181Z,18.69
2022-09-07T23:43:48.459Z,18.71
2022-09-07T23:46:16.033Z,18.73
2022-09-07T23:48:44.161Z,18.77
2022-09-07T23:51:11.544Z,18.79
2022-09-07T23:53:38.112Z,18.84
2022-09-07T23:56:05.301Z,18.90
2022-09-07T23:58:32.073Z,18.94
